Freeport, Bahamas

9:02 AM EST on February 14, 2016 (GMT -0500)
North Shore | | Change Station
CLOSE
Current Station
Personal Weather Station
Location: Freeport, FREEPORT
Elevation: 10 ft
Nearby Weather Stations

Elev 10 ft 26.58 °N, 78.67 °W | Updated 30 seconds ago

Scattered Clouds
Scattered Clouds
65.8 °F
Feels Like 65.8 °F
N
13.9
Wind Variable Wind from East
Gusts 15.0 mph

Today
High -- | Low -- °F
--% Chance of Precip.
Yesterday
High -- | Low -- °F
Precip. -- in
Pressure 30.19 in
Visibility 6.2 miles
Clouds Few 2000 ft
Scattered Clouds 3000 ft
Dew Point 51 °F
Humidity 58%
Rainfall 0.00 in
Snow Depth Not available.
6:51 AM 6:06 PM
Waxing Crescent, 42% visible
METAR MYGF 141300Z 06003KT 9999 FEW020 SCT030 16/11 A3019
Pressure 30.19 in
Visibility 6.2 miles
Clouds Few 2000 ft
Scattered Clouds 3000 ft
Dew Point 51 °F
Humidity 58%
Rainfall 0.00 in
Snow Depth Not available.
6:51 AM 6:06 PM
Waxing Crescent, 42% visible
METAR MYGF 141300Z 06003KT 9999 FEW020 SCT030 16/11 A3019

10-Day Weather Forecast

Almanac

Astronomy

Feb. 14, 2016 Rise Set
Actual Time
Civil Twilight
Nautical Twilight
Astronomical Twilight
Moon
Length of Visible Light
Length of Day
Tomorrow will be .
, % of the Moon is Illuminated

Today's Extremes

Country Highs Country Lows

Community

WunderPhotos

Upload Photos

1,892,797 photos uploaded!

WunderBlog® & News

Nearby

Air Quality

  Air Quality AQ Index Pollutant
Not available.

Snow Depth

Station Depth Elevation

Earthquake Activity

City Distance Mag. Time & Date
Minimum magnitude displayed is 2.5.

Coastal Water Temperatures

Place Temperature

Stations

Nearby Weather Stations

Station Location Temp. Windchill Dew Point Humidity Wind Precip. Elev Updated Type